createdAt,value
2019-03-02T00:04:58.680Z,96322.76
2019-03-02T00:10:50.520Z,96306.67
2019-03-02T00:13:43.505Z,96336.02
2019-03-02T00:16:24.264Z,96339.73
2019-03-02T00:19:14.010Z,96326.46
2019-03-02T00:21:57.864Z,96335.45
2019-03-02T00:24:47.586Z,96342.98
2019-03-02T00:27:29.684Z,96345.41
2019-03-02T00:30:21.160Z,96344.70
2019-03-02T00:33:04.734Z,96340.98
2019-03-02T00:35:54.510Z,96340.36
2019-03-02T00:38:36.888Z,96342.14
2019-03-02T00:41:26.626Z,96338.16
2019-03-02T00:44:09.354Z,96340.22
2019-03-02T00:46:59.663Z,96340.08
2019-03-02T00:49:50.351Z,96338.50
2019-03-02T00:52:40.080Z,96348.06
2019-03-02T00:55:22.422Z,96351.89
2019-03-02T00:57:53.693Z,96359.88
2019-03-02T01:00:37.446Z,96359.51
2019-03-02T01:03:27.156Z,96361.88
2019-03-02T01:09:13.152Z,96338.27
2019-03-02T01:12:05.902Z,96360.16
2019-03-02T01:14:47.400Z,96356.23
2019-03-02T01:17:37.371Z,96354.38
2019-03-02T01:20:28.796Z,96331.19
2019-03-02T01:23:11.863Z,96351.52
2019-03-02T01:26:01.737Z,96352.23
2019-03-02T01:28:51.494Z,96351.95
2019-03-02T01:31:41.765Z,96346.62
2019-03-02T01:34:24.791Z,96322.03
2019-03-02T01:37:14.520Z,96346.39
2019-03-02T01:40:00.795Z,96331.51
2019-03-02T01:42:48.849Z,96345.34
2019-03-02T01:45:32.460Z,96320.06
2019-03-02T01:48:22.807Z,96346.05
2019-03-02T01:51:06.345Z,96340.58
2019-03-02T01:53:56.070Z,96338.02
2019-03-02T01:56:41.294Z,96336.72
2019-03-02T01:59:30.402Z,96335.70
2019-03-02T02:02:12.741Z,96312.90
2019-03-02T02:08:03.256Z,96328.06
2019-03-02T02:10:53.233Z,96329.22
2019-03-02T02:13:35.187Z,96329.42
2019-03-02T02:16:24.922Z,96301.71
2019-03-02T02:19:07.736Z,96320.09
2019-03-02T02:21:58.791Z,96320.23
2019-03-02T02:24:41.749Z,96320.73
2019-03-02T02:27:31.480Z,96323.86
2019-03-02T02:30:24.563Z,96311.87
2019-03-02T02:33:12.001Z,96313.42
2019-03-02T02:35:54.384Z,96320.60
2019-03-02T02:38:44.104Z,96303.28
2019-03-02T02:41:26.479Z,96312.56
2019-03-02T02:44:16.187Z,96310.42
2019-03-02T02:46:58.270Z,96309.97
2019-03-02T02:52:43.535Z,96300.87
2019-03-02T02:55:36.253Z,96296.38
2019-03-02T02:58:17.448Z,96298.86
2019-03-02T03:01:08.366Z,96302.59
2019-03-02T03:03:54.762Z,96301.38
2019-03-02T03:06:41.878Z,96291.36
2019-03-02T03:12:35.456Z,96299.92
2019-03-02T03:18:21.635Z,96282.08
2019-03-02T03:21:11.335Z,96299.09
2019-03-02T03:23:54.216Z,96276.96
2019-03-02T03:26:43.900Z,96299.88
2019-03-02T03:29:26.420Z,96293.18
2019-03-02T03:32:16.128Z,96299.80
2019-03-02T03:34:58.683Z,96296.34
2019-03-02T03:37:51.192Z,96291.41
2019-03-02T03:40:32.758Z,96283.56
2019-03-02T03:43:22.468Z,96284.01
2019-03-02T03:46:05.123Z,96252.61
2019-03-02T03:48:56.366Z,96279.52
2019-03-02T03:51:39.310Z,96268.98
2019-03-02T03:54:29.050Z,96264.03
2019-03-02T03:57:11.894Z,96274.75
2019-03-02T04:00:01.661Z,96281.47
2019-03-02T04:03:04.016Z,96277.93
2019-03-02T04:05:47.066Z,96253.49
2019-03-02T04:08:37.405Z,96278.72
2019-03-02T04:11:19.718Z,96282.77
2019-03-02T04:14:09.385Z,96279.70
2019-03-02T04:16:55.701Z,96281.06
2019-03-02T04:19:43.525Z,96278.95
2019-03-02T04:22:25.766Z,96275.19
2019-03-02T04:25:13.111Z,96276.17
2019-03-02T04:28:01.574Z,96274.48
2019-03-02T04:30:43.598Z,96272.67
2019-03-02T04:33:33.346Z,96269.50
2019-03-02T04:36:23.110Z,96266.01
2019-03-02T04:39:13.747Z,96275.70
2019-03-02T04:41:56.997Z,96272.43
2019-03-02T04:45:06.050Z,96273.92
2019-03-02T04:47:55.811Z,96277.25
2019-03-02T04:50:45.506Z,96275.89
2019-03-02T04:53:35.216Z,96281.78
2019-03-02T04:56:25.123Z,96285.34
2019-03-02T04:59:09.186Z,96262.88
2019-03-02T05:01:58.928Z,96263.70
2019-03-02T05:04:40.942Z,96281.19
2019-03-02T05:07:30.996Z,96284.73
2019-03-02T05:10:03.068Z,96281.47
2019-03-02T05:12:53.225Z,96275.77
2019-03-02T05:15:44.253Z,96256.02
2019-03-02T05:18:26.342Z,96266.45
2019-03-02T05:21:16.078Z,96268.88
2019-03-02T05:23:58.116Z,96271.24
2019-03-02T05:26:47.840Z,96262.67
2019-03-02T05:29:30.189Z,96265.74
2019-03-02T05:32:19.924Z,96257.58
2019-03-02T05:35:02.225Z,96266.62
2019-03-02T05:37:51.940Z,96265.69
2019-03-02T05:40:34.856Z,96271.80
2019-03-02T05:43:27.121Z,96266.77
2019-03-02T05:46:08.245Z,96266.63
2019-03-02T05:48:57.963Z,96258.94
2019-03-02T05:51:42.748Z,96251.80
2019-03-02T05:54:31.727Z,96270.97
2019-03-02T05:57:15.884Z,96253.16
2019-03-02T06:03:21.709Z,96279.30
2019-03-02T06:06:11.529Z,96274.73
2019-03-02T06:12:04.434Z,96272.17
2019-03-02T06:14:46.619Z,96264.71
2019-03-02T06:17:36.456Z,96265.19
2019-03-02T06:20:26.179Z,96263.14
2019-03-02T06:23:15.947Z,96269.97
2019-03-02T06:26:05.747Z,96264.27
2019-03-02T06:28:57.912Z,96263.14
2019-03-02T06:31:40.179Z,96263.12
2019-03-02T06:34:29.891Z,96260.14
2019-03-02T06:37:11.871Z,96261.63
2019-03-02T06:40:01.616Z,96257.43
2019-03-02T06:42:51.403Z,96257.80
2019-03-02T06:45:54.555Z,96257.95
2019-03-02T06:48:36.895Z,96261.27
2019-03-02T06:51:26.607Z,96254.29
2019-03-02T06:54:12.863Z,96256.30
2019-03-02T06:57:00.469Z,96252.24
2019-03-02T06:59:43.261Z,96252.09
2019-03-02T07:02:35.105Z,96254.71
2019-03-02T07:05:17.506Z,96246.45
2019-03-02T07:08:07.239Z,96250.44
2019-03-02T07:10:50.102Z,96219.00
2019-03-02T07:13:39.861Z,96243.04
2019-03-02T07:16:10.505Z,96219.00
2019-03-02T07:19:19.094Z,96237.95
2019-03-02T07:22:03.648Z,96239.80
2019-03-02T07:24:46.125Z,96236.94
2019-03-02T07:27:35.901Z,96228.33
2019-03-02T07:30:25.687Z,96230.62
2019-03-02T07:33:15.479Z,96226.36
2019-03-02T07:36:05.265Z,96231.67
2019-03-02T07:39:07.930Z,96230.91
2019-03-02T07:41:54.273Z,96215.22
2019-03-02T07:44:42.231Z,96211.80
2019-03-02T07:47:25.077Z,96213.49
2019-03-02T07:50:14.992Z,96239.08
2019-03-02T07:52:58.163Z,96235.19
2019-03-02T07:55:47.883Z,96235.04
2019-03-02T07:58:30.317Z,96233.27
2019-03-02T08:01:20.074Z,96204.75
2019-03-02T08:04:04.532Z,96227.52
2019-03-02T08:06:54.257Z,96223.56
2019-03-02T08:09:36.637Z,96197.73
2019-03-02T08:12:26.368Z,96219.65
2019-03-02T08:15:09.798Z,96224.91
2019-03-02T08:20:57.306Z,96215.64
2019-03-02T08:23:48.302Z,96223.13
2019-03-02T08:26:29.732Z,96222.02
2019-03-02T08:29:11.780Z,96219.09
2019-03-02T08:31:54.794Z,96218.63
2019-03-02T08:34:46.381Z,96226.10
2019-03-02T08:37:29.927Z,96225.73
2019-03-02T08:40:23.458Z,96224.50
2019-03-02T08:43:05.159Z,96220.19
2019-03-02T08:45:54.895Z,96223.00
2019-03-02T08:48:37.700Z,96219.18
2019-03-02T08:51:29.137Z,96219.72
2019-03-02T08:54:17.889Z,96216.06
2019-03-02T08:57:07.444Z,96213.82
2019-03-02T08:59:49.548Z,96212.20
2019-03-02T09:02:39.287Z,96213.09
2019-03-02T09:05:26.057Z,96208.17
2019-03-02T09:08:13.435Z,96207.54
2019-03-02T09:10:55.431Z,96207.34
2019-03-02T09:13:45.202Z,96201.30
2019-03-02T09:16:27.868Z,96204.98
2019-03-02T09:19:20.875Z,96204.92
2019-03-02T09:22:02.217Z,96181.14
2019-03-02T09:24:52.089Z,96197.95
2019-03-02T09:27:41.798Z,96176.14
2019-03-02T09:30:31.544Z,96188.97
2019-03-02T09:33:24.792Z,96195.72
2019-03-02T09:36:05.934Z,96177.88
2019-03-02T09:38:57.471Z,96172.45
2019-03-02T09:41:40.235Z,96186.28
2019-03-02T09:44:10.899Z,96164.52
2019-03-02T09:47:00.703Z,96179.39
2019-03-02T09:49:43.419Z,96177.63
2019-03-02T09:52:33.191Z,96171.38
2019-03-02T09:55:22.969Z,96176.53
2019-03-02T10:01:06.441Z,96175.94
2019-03-02T10:03:58.858Z,96162.19
2019-03-02T10:06:40.400Z,96169.27
2019-03-02T10:09:31.467Z,96171.49
2019-03-02T10:12:15.107Z,96166.23
2019-03-02T10:18:10.551Z,96155.57
2019-03-02T10:20:51.091Z,96165.52
2019-03-02T10:23:42.032Z,96174.22
2019-03-02T10:26:13.355Z,96170.88
2019-03-02T10:29:22.231Z,96178.16
2019-03-02T10:32:12.337Z,96167.99
2019-03-02T10:34:56.099Z,96182.42
2019-03-02T10:37:45.989Z,96153.19
2019-03-02T10:40:35.775Z,96177.95
2019-03-02T10:43:25.495Z,96163.86
2019-03-02T10:46:15.557Z,96164.17
2019-03-02T10:49:06.845Z,96186.06
2019-03-02T10:51:49.513Z,96184.34
2019-03-02T10:54:39.253Z,96182.61
2019-03-02T10:57:21.509Z,96191.64
2019-03-02T11:03:15.909Z,96186.22
2019-03-02T11:06:24.483Z,96189.66
2019-03-02T11:09:28.637Z,96187.63
2019-03-02T11:12:39.822Z,96160.14
2019-03-02T11:15:43.570Z,96185.17
2019-03-02T11:18:51.625Z,96189.38
2019-03-02T11:21:52.599Z,96189.98
2019-03-02T11:24:52.686Z,96181.87
2019-03-02T11:28:01.269Z,96187.08
2019-03-02T11:30:56.099Z,96186.17
2019-03-02T11:34:04.751Z,96176.56
2019-03-02T11:37:13.515Z,96183.63
2019-03-02T11:40:10.007Z,96182.03
2019-03-02T11:43:18.573Z,96181.92
2019-03-02T11:46:23.747Z,96182.31
2019-03-02T11:49:31.045Z,96187.42
2019-03-02T11:52:35.027Z,96164.45
2019-03-02T11:55:43.546Z,96167.20
2019-03-02T11:58:42.661Z,96180.80
2019-03-02T12:01:43.879Z,96186.38
2019-03-02T12:04:48.789Z,96167.44
2019-03-02T12:07:53.835Z,96155.12
2019-03-02T12:11:02.445Z,96168.27
2019-03-02T12:14:30.128Z,96165.00
2019-03-02T12:17:41.092Z,96168.34
2019-03-02T12:20:45.333Z,96166.03
2019-03-02T12:23:52.719Z,96157.09
2019-03-02T12:30:06.203Z,96159.59
2019-03-02T12:33:07.876Z,96150.27
2019-03-02T12:36:17.268Z,96158.46
2019-03-02T12:39:12.416Z,96135.06
2019-03-02T12:42:20.993Z,96154.15
2019-03-02T12:45:19.108Z,96146.17
2019-03-02T12:48:29.349Z,96148.52
2019-03-02T12:51:20.346Z,96125.34
2019-03-02T12:54:28.986Z,96145.41
2019-03-02T12:57:41.255Z,96141.48
2019-03-02T13:00:46.696Z,96136.02
2019-03-02T13:03:55.289Z,96133.12
2019-03-02T13:06:56.699Z,96108.75
2019-03-02T13:10:05.326Z,96119.48
2019-03-02T13:13:17.001Z,96107.56
2019-03-02T13:16:25.003Z,96126.05
2019-03-02T13:19:28.154Z,96117.44
2019-03-02T13:22:26.145Z,96121.48
2019-03-02T13:25:30.165Z,96119.92
2019-03-02T13:28:24.551Z,96107.46
2019-03-02T13:31:30.734Z,96120.53
2019-03-02T13:34:33.958Z,96123.07
2019-03-02T13:37:35.910Z,96092.98
2019-03-02T13:40:44.590Z,96114.87
2019-03-02T13:43:53.218Z,96114.54
2019-03-02T13:47:01.906Z,96093.89
2019-03-02T13:50:13.887Z,96119.44
2019-03-02T13:53:15.799Z,96114.58
2019-03-02T13:56:26.674Z,96092.40
2019-03-02T13:59:27.225Z,96087.52
2019-03-02T14:02:38.340Z,96112.83
2019-03-02T14:05:45.751Z,96112.45
2019-03-02T14:08:54.303Z,96092.42
2019-03-02T14:11:55.906Z,96109.75
2019-03-02T14:15:04.587Z,96090.28
2019-03-02T14:18:13.135Z,96106.41
2019-03-02T14:21:12.575Z,96086.89
2019-03-02T14:24:21.358Z,96108.30
2019-03-02T14:27:22.310Z,96105.19
2019-03-02T14:30:31.067Z,96097.79
2019-03-02T14:33:32.019Z,96099.00
2019-03-02T14:36:40.714Z,96101.95
2019-03-02T14:39:49.250Z,96100.79
2019-03-02T14:42:50.603Z,96100.58
2019-03-02T14:49:08.273Z,96107.02
2019-03-02T14:52:09.486Z,96107.40
2019-03-02T14:55:18.105Z,96103.30
2019-03-02T14:58:26.725Z,96100.97
2019-03-02T15:01:36.014Z,96099.63
2019-03-02T15:04:43.104Z,96090.66
2019-03-02T15:07:45.554Z,96093.38
2019-03-02T15:10:43.113Z,96097.47
2019-03-02T15:13:49.759Z,96090.83
2019-03-02T15:16:45.693Z,96088.30
2019-03-02T15:19:57.419Z,96085.58
2019-03-02T15:23:04.175Z,96089.67
2019-03-02T15:26:06.633Z,96084.80
2019-03-02T15:29:16.128Z,96091.41
2019-03-02T15:35:33.702Z,96096.12
2019-03-02T15:38:40.036Z,96096.48
2019-03-02T15:41:42.180Z,96102.53
2019-03-02T15:44:49.307Z,96102.72
2019-03-02T15:47:37.604Z,96100.80
2019-03-02T15:50:46.214Z,96101.16
2019-03-02T15:53:56.567Z,96102.13
2019-03-02T15:57:13.046Z,96097.06
2019-03-02T16:00:21.664Z,96097.83
2019-03-02T16:03:20.466Z,96100.75
2019-03-02T16:06:27.089Z,96092.94
2019-03-02T16:09:28.991Z,96094.67
2019-03-02T16:12:35.950Z,96093.33
2019-03-02T16:15:45.316Z,96068.95
2019-03-02T16:18:40.649Z,96085.98
2019-03-02T16:21:36.376Z,96102.34
2019-03-02T16:24:33.927Z,96099.78
2019-03-02T16:27:39.198Z,96105.58
2019-03-02T16:30:47.775Z,96102.46
2019-03-02T16:33:56.319Z,96103.25
2019-03-02T16:36:48.412Z,96104.98
2019-03-02T16:39:57.069Z,96107.30
2019-03-02T16:43:05.799Z,96096.47
2019-03-02T16:46:14.352Z,96121.62
2019-03-02T16:49:20.778Z,96123.13
2019-03-02T16:52:22.361Z,96102.01
2019-03-02T16:55:30.994Z,96122.80
2019-03-02T16:58:39.872Z,96121.77
2019-03-02T17:01:29.307Z,96129.70
2019-03-02T17:04:30.526Z,96127.27
2019-03-02T17:07:39.081Z,96128.77
2019-03-02T17:10:36.408Z,96134.34
2019-03-02T17:13:33.635Z,96116.10
2019-03-02T17:16:38.473Z,96135.78
2019-03-02T17:19:47.020Z,96140.47
2019-03-02T17:22:48.248Z,96144.98
2019-03-02T17:25:56.770Z,96150.83
2019-03-02T17:28:57.736Z,96156.09
2019-03-02T17:32:06.278Z,96161.73
2019-03-02T17:35:07.944Z,96158.44
2019-03-02T17:38:08.094Z,96160.11
2019-03-02T17:41:08.262Z,96170.75
2019-03-02T17:44:18.749Z,96160.02
2019-03-02T17:47:08.047Z,96168.84
2019-03-02T17:49:57.052Z,96183.34
2019-03-02T17:53:05.669Z,96182.06
2019-03-02T17:56:14.325Z,96181.06
2019-03-02T17:59:15.939Z,96186.10
2019-03-02T18:02:45.893Z,96190.17
2019-03-02T18:05:34.816Z,96187.80
2019-03-02T18:08:32.930Z,96191.88
2019-03-02T18:11:41.482Z,96183.86
2019-03-02T18:14:50.023Z,96199.47
2019-03-02T18:17:58.570Z,96176.67
2019-03-02T18:20:40.945Z,96193.87
2019-03-02T18:23:30.760Z,96194.47
2019-03-02T18:26:20.732Z,96169.66
2019-03-02T18:29:05.097Z,96202.85
2019-03-02T18:31:57.290Z,96202.81
2019-03-02T18:34:39.393Z,96188.84
2019-03-02T18:37:30.612Z,96214.19
2019-03-02T18:40:15.043Z,96206.95
2019-03-02T18:43:08.054Z,96219.97
2019-03-02T18:45:49.215Z,96221.33
2019-03-02T18:48:57.781Z,96223.42
2019-03-02T18:52:06.425Z,96221.49
2019-03-02T18:55:15.251Z,96224.56
2019-03-02T19:01:29.555Z,96235.41
2019-03-02T19:04:12.612Z,96245.21
2019-03-02T19:07:03.292Z,96236.22
2019-03-02T19:09:46.645Z,96233.27
2019-03-02T19:12:36.451Z,96248.21
2019-03-02T19:15:26.370Z,96242.05
2019-03-02T19:18:16.180Z,96235.42
2019-03-02T19:21:05.952Z,96242.78
2019-03-02T19:23:55.745Z,96244.47
2019-03-02T19:26:45.499Z,96245.83
2019-03-02T19:29:35.477Z,96244.82
2019-03-02T19:32:25.243Z,96225.39
2019-03-02T19:35:15.165Z,96249.61
2019-03-02T19:38:05.906Z,96258.78
2019-03-02T19:40:49.470Z,96237.61
2019-03-02T19:43:39.312Z,96260.52
2019-03-02T19:46:29.085Z,96266.98
2019-03-02T19:49:18.850Z,96267.00
2019-03-02T19:52:01.223Z,96275.77
2019-03-02T19:57:54.718Z,96278.55
2019-03-02T20:00:37.335Z,96285.91
2019-03-02T20:03:27.052Z,96283.77
2019-03-02T20:06:09.053Z,96271.22
2019-03-02T20:08:58.763Z,96292.51
2019-03-02T20:11:41.190Z,96297.16
2019-03-02T20:14:31.088Z,96296.58
2019-03-02T20:17:13.226Z,96298.30
2019-03-02T20:20:02.998Z,96263.53
2019-03-02T20:22:45.636Z,96278.36
2019-03-02T20:25:35.392Z,96291.09
2019-03-02T20:28:18.307Z,96286.62
2019-03-02T20:31:08.045Z,96291.27
2019-03-02T20:33:50.558Z,96289.69
2019-03-02T20:39:41.404Z,96295.34
2019-03-02T20:42:31.144Z,96291.16
2019-03-02T20:45:13.570Z,96288.59
2019-03-02T20:48:03.378Z,96287.88
2019-03-02T20:50:46.034Z,96296.59
2019-03-02T20:53:48.408Z,96300.31
2019-03-02T20:56:30.948Z,96298.16
2019-03-02T20:59:20.688Z,96298.95
2019-03-02T21:02:04.896Z,96282.14
2019-03-02T21:04:54.640Z,96288.66
2019-03-02T21:07:36.906Z,96293.87
2019-03-02T21:10:26.805Z,96263.54
2019-03-02T21:13:09.786Z,96293.84
2019-03-02T21:15:59.590Z,96300.06
2019-03-02T21:18:41.811Z,96278.55
2019-03-02T21:21:31.040Z,96314.21
2019-03-02T21:24:13.314Z,96319.27
2019-03-02T21:27:03.307Z,96311.12
2019-03-02T21:29:53.066Z,96319.27
2019-03-02T21:32:42.818Z,96320.78
2019-03-02T21:35:32.636Z,96319.59
2019-03-02T21:38:22.494Z,96308.02
2019-03-02T21:41:24.835Z,96316.97
2019-03-02T21:44:07.700Z,96317.13
2019-03-02T21:46:57.458Z,96321.05
2019-03-02T21:49:40.084Z,96316.34
2019-03-02T21:52:29.842Z,96312.08
2019-03-02T21:55:12.456Z,96312.08
2019-03-02T21:58:02.179Z,96313.03
2019-03-02T22:00:44.432Z,96312.72
2019-03-02T22:03:26.724Z,96314.91
2019-03-02T22:06:16.502Z,96311.05
2019-03-02T22:09:07.655Z,96312.89
2019-03-02T22:11:57.496Z,96312.89
2019-03-02T22:14:47.286Z,96295.03
2019-03-02T22:17:37.084Z,96320.08
2019-03-02T22:20:21.125Z,96304.81
2019-03-02T22:23:10.660Z,96322.61
2019-03-02T22:26:00.440Z,96317.05
2019-03-02T22:28:50.210Z,96315.44
2019-03-02T22:34:38.211Z,96314.33
2019-03-02T22:37:27.982Z,96312.06
2019-03-02T22:40:11.132Z,96311.13
2019-03-02T22:43:00.879Z,96309.59
2019-03-02T22:45:50.985Z,96312.89
2019-03-02T22:48:33.371Z,96303.61
2019-03-02T22:51:23.187Z,96315.92
2019-03-02T22:54:12.999Z,96320.72
2019-03-02T22:56:56.927Z,96326.55
2019-03-02T23:00:24.819Z,96327.16
2019-03-02T23:03:13.023Z,96330.44
2019-03-02T23:06:02.847Z,96327.00
2019-03-02T23:08:52.741Z,96324.60
2019-03-02T23:11:34.774Z,96317.94
2019-03-02T23:14:24.609Z,96309.39
2019-03-02T23:17:14.451Z,96308.82
2019-03-02T23:20:04.707Z,96307.21
2019-03-02T23:23:07.719Z,96301.22
2019-03-02T23:25:54.087Z,96299.10
2019-03-02T23:28:43.904Z,96289.30
2019-03-02T23:31:26.709Z,96256.11
2019-03-02T23:34:16.519Z,96286.86
2019-03-02T23:37:06.235Z,96280.86
2019-03-02T23:39:55.987Z,96288.56
2019-03-02T23:42:45.697Z,96289.14
2019-03-02T23:45:30.230Z,96291.72
2019-03-02T23:48:19.969Z,96289.20
2019-03-02T23:50:50.761Z,96306.42
2019-03-02T23:53:40.519Z,96307.88
2019-03-02T23:56:23.111Z,96270.05
2019-03-02T23:59:12.915Z,96300.59
